Country
Station

 

Weather  for  Rovaniemi  -  Finland    Finland

  
1 °C (34 °F)
    
 
 

Current METAR for Rovaniemi is :

EFRO 192120Z AUTO 08005KT CAVOK 01/M05 Q1020

 

This is a report for Rovaniemi - Finland.
 
The report was made 6 minutes ago, at 21:20 UTC .
The wind was blowing at a speed of 2.6 meters per second (5.8 miles per hour) from east (080°).
 
The temperature was 1 °C (34 °F), with a dew-point at -5 °C (23 °F).
The temperature felt like -2 °C (29 °F).
 
The atmospheric pressure was 1020 hPa (30.12 inHg).
The relative humidity was 64.1%.
 
There were no clouds below 1500 meter (5000 feet) and no cumulonimbus clouds.
 
The overall visibility was greater than 10 kilometers (6.2 miles).
 

 
 
 
 

Country :   A   B   C   D   E   F   G   H   I   J   K   L   M   N   O   P   Q   R   S   T   U   V   W   Y   Z

 

Site Info  |  Disclaimer  |  Credits  |  Privacy
Contact us  |  Add to favorites
© 2013-2018 METARs - All rights reserved